Weather at Nappa Merrie Airport

Public forecast

Using degrees Celsius for public forecast. Weather courtesy of forecast.io.

Closest aviation weather report (METAR) to Nappa Merrie Airport

Report is more than 6 hours old.

Closest report is Birdsville Airport, 138.8 nm (257.0 km) NW. Retrieved 2022/05/25 12:15 UTC (2 days ago):

YBDV 251215Z AUTO 13001KT 9999 // NCD 19/08 Q1016

Closest aviation forecast (TAF) to Nappa Merrie Airport

Forecast is more than 6 hours old.

Closest forecast is Woomera Airfield, 313.3 nm (580.3 km) SW. Retrieved 2022/05/27 06:00 UTC (7 hours ago):

TAF YPWR 270537Z 2706/2800 19006KT 9999 SCT030 FM270900 23007KT CAVOK